sensor_id;sensor_type;location;lat;lon;timestamp;P1;durP1;ratioP1;P2;durP2;ratioP2
35847;SDS011;22332;51.954;20.118;2023-06-19T00:00:58;10.10;;;8.50;;
35847;SDS011;22332;51.954;20.118;2023-06-19T00:04:14;9.50;;;8.50;;
35847;SDS011;22332;51.954;20.118;2023-06-19T00:07:19;10.30;;;9.30;;
35847;SDS011;22332;51.954;20.118;2023-06-19T00:10:25;8.70;;;7.80;;
35847;SDS011;22332;51.954;20.118;2023-06-19T00:13:30;8.20;;;7.40;;
35847;SDS011;22332;51.954;20.118;2023-06-19T00:16:36;9.50;;;7.70;;
35847;SDS011;22332;51.954;20.118;2023-06-19T00:19:43;10.50;;;8.10;;
35847;SDS011;22332;51.954;20.118;2023-06-19T00:22:49;10.20;;;8.10;;
35847;SDS011;22332;51.954;20.118;2023-06-19T00:25:55;10.20;;;8.00;;
35847;SDS011;22332;51.954;20.118;2023-06-19T00:29:01;10.10;;;8.20;;
35847;SDS011;22332;51.954;20.118;2023-06-19T00:32:07;9.30;;;6.90;;
35847;SDS011;22332;51.954;20.118;2023-06-19T00:35:13;8.10;;;7.10;;
35847;SDS011;22332;51.954;20.118;2023-06-19T00:38:20;8.30;;;7.40;;
35847;SDS011;22332;51.954;20.118;2023-06-19T00:41:26;9.70;;;7.70;;
35847;SDS011;22332;51.954;20.118;2023-06-19T00:44:33;8.10;;;7.00;;
35847;SDS011;22332;51.954;20.118;2023-06-19T00:47:39;10.10;;;7.60;;
35847;SDS011;22332;51.954;20.118;2023-06-19T00:50:45;9.10;;;7.50;;
35847;SDS011;22332;51.954;20.118;2023-06-19T00:53:50;7.90;;;7.10;;
35847;SDS011;22332;51.954;20.118;2023-06-19T00:56:56;7.60;;;6.50;;
35847;SDS011;22332;51.954;20.118;2023-06-19T01:00:04;12.20;;;8.20;;
35847;SDS011;22332;51.954;20.118;2023-06-19T01:03:12;10.00;;;8.80;;
35847;SDS011;22332;51.954;20.118;2023-06-19T01:06:20;9.30;;;8.40;;
35847;SDS011;22332;51.954;20.118;2023-06-19T01:09:33;9.60;;;8.60;;
35847;SDS011;22332;51.954;20.118;2023-06-19T01:12:44;9.50;;;8.50;;
35847;SDS011;22332;51.954;20.118;2023-06-19T01:15:55;8.60;;;7.70;;
35847;SDS011;22332;51.954;20.118;2023-06-19T01:19:01;9.00;;;7.80;;
35847;SDS011;22332;51.954;20.118;2023-06-19T01:22:23;10.50;;;8.90;;
35847;SDS011;22332;51.954;20.118;2023-06-19T01:25:29;10.30;;;8.70;;
35847;SDS011;22332;51.954;20.118;2023-06-19T01:28:35;10.70;;;9.60;;
35847;SDS011;22332;51.954;20.118;2023-06-19T01:31:44;10.30;;;9.00;;
35847;SDS011;22332;51.954;20.118;2023-06-19T01:34:54;10.40;;;8.50;;
35847;SDS011;22332;51.954;20.118;2023-06-19T01:38:05;9.30;;;8.20;;
35847;SDS011;22332;51.954;20.118;2023-06-19T01:41:11;9.40;;;7.60;;
35847;SDS011;22332;51.954;20.118;2023-06-19T01:44:19;8.80;;;7.50;;
35847;SDS011;22332;51.954;20.118;2023-06-19T01:47:25;9.80;;;8.10;;
35847;SDS011;22332;51.954;20.118;2023-06-19T01:50:31;9.10;;;7.60;;
35847;SDS011;22332;51.954;20.118;2023-06-19T01:53:36;9.80;;;8.60;;
35847;SDS011;22332;51.954;20.118;2023-06-19T01:56:42;9.70;;;8.40;;
35847;SDS011;22332;51.954;20.118;2023-06-19T01:59:50;8.70;;;6.90;;
35847;SDS011;22332;51.954;20.118;2023-06-19T02:02:56;8.00;;;6.80;;
35847;SDS011;22332;51.954;20.118;2023-06-19T02:06:01;8.40;;;7.50;;
35847;SDS011;22332;51.954;20.118;2023-06-19T02:09:07;10.60;;;8.40;;
35847;SDS011;22332;51.954;20.118;2023-06-19T02:12:15;10.40;;;8.10;;
35847;SDS011;22332;51.954;20.118;2023-06-19T02:15:20;10.10;;;7.60;;
35847;SDS011;22332;51.954;20.118;2023-06-19T02:18:26;11.50;;;8.20;;
35847;SDS011;22332;51.954;20.118;2023-06-19T02:21:31;9.50;;;8.20;;
35847;SDS011;22332;51.954;20.118;2023-06-19T02:24:37;9.40;;;7.40;;
35847;SDS011;22332;51.954;20.118;2023-06-19T02:27:43;7.80;;;6.50;;
35847;SDS011;22332;51.954;20.118;2023-06-19T02:30:48;8.40;;;7.30;;
35847;SDS011;22332;51.954;20.118;2023-06-19T02:33:55;8.80;;;7.80;;
35847;SDS011;22332;51.954;20.118;2023-06-19T02:37:01;9.30;;;8.00;;
35847;SDS011;22332;51.954;20.118;2023-06-19T02:40:07;11.60;;;8.20;;
35847;SDS011;22332;51.954;20.118;2023-06-19T02:43:14;10.00;;;8.80;;
35847;SDS011;22332;51.954;20.118;2023-06-19T02:46:19;9.10;;;7.80;;
35847;SDS011;22332;51.954;20.118;2023-06-19T02:49:25;8.30;;;7.40;;
35847;SDS011;22332;51.954;20.118;2023-06-19T02:52:30;8.70;;;7.60;;
35847;SDS011;22332;51.954;20.118;2023-06-19T02:55:36;10.20;;;7.80;;
35847;SDS011;22332;51.954;20.118;2023-06-19T02:58:42;9.60;;;8.50;;
35847;SDS011;22332;51.954;20.118;2023-06-19T03:01:47;11.40;;;9.20;;
35847;SDS011;22332;51.954;20.118;2023-06-19T03:04:54;10.90;;;8.80;;
35847;SDS011;22332;51.954;20.118;2023-06-19T03:08:00;9.60;;;8.60;;
35847;SDS011;22332;51.954;20.118;2023-06-19T03:11:05;9.80;;;7.60;;
35847;SDS011;22332;51.954;20.118;2023-06-19T03:14:11;7.90;;;7.10;;
35847;SDS011;22332;51.954;20.118;2023-06-19T03:17:17;8.50;;;7.60;;
35847;SDS011;22332;51.954;20.118;2023-06-19T03:20:23;9.00;;;7.90;;
35847;SDS011;22332;51.954;20.118;2023-06-19T03:23:34;15.40;;;8.10;;
35847;SDS011;22332;51.954;20.118;2023-06-19T03:26:39;9.20;;;8.20;;
35847;SDS011;22332;51.954;20.118;2023-06-19T03:29:45;8.70;;;7.20;;
35847;SDS011;22332;51.954;20.118;2023-06-19T03:32:55;9.90;;;7.00;;
35847;SDS011;22332;51.954;20.118;2023-06-19T03:36:15;9.80;;;8.20;;
35847;SDS011;22332;51.954;20.118;2023-06-19T03:39:24;9.50;;;8.40;;
35847;SDS011;22332;51.954;20.118;2023-06-19T03:42:33;10.00;;;9.00;;
35847;SDS011;22332;51.954;20.118;2023-06-19T03:45:39;10.60;;;8.90;;
35847;SDS011;22332;51.954;20.118;2023-06-19T03:48:45;9.20;;;8.30;;
35847;SDS011;22332;51.954;20.118;2023-06-19T03:51:51;9.30;;;8.40;;
35847;SDS011;22332;51.954;20.118;2023-06-19T03:54:57;10.20;;;9.10;;
35847;SDS011;22332;51.954;20.118;2023-06-19T03:58:03;11.00;;;8.70;;
35847;SDS011;22332;51.954;20.118;2023-06-19T04:01:08;10.70;;;9.60;;
35847;SDS011;22332;51.954;20.118;2023-06-19T04:04:14;9.60;;;8.70;;
35847;SDS011;22332;51.954;20.118;2023-06-19T04:07:20;10.60;;;8.80;;
35847;SDS011;22332;51.954;20.118;2023-06-19T04:10:25;9.60;;;8.60;;
35847;SDS011;22332;51.954;20.118;2023-06-19T04:13:33;9.50;;;8.50;;
35847;SDS011;22332;51.954;20.118;2023-06-19T04:16:39;9.80;;;8.80;;
35847;SDS011;22332;51.954;20.118;2023-06-19T04:19:46;12.00;;;10.70;;
35847;SDS011;22332;51.954;20.118;2023-06-19T04:22:56;12.20;;;11.00;;
35847;SDS011;22332;51.954;20.118;2023-06-19T04:26:01;9.50;;;8.50;;
35847;SDS011;22332;51.954;20.118;2023-06-19T04:29:07;10.20;;;8.40;;
35847;SDS011;22332;51.954;20.118;2023-06-19T04:32:19;10.00;;;9.10;;
35847;SDS011;22332;51.954;20.118;2023-06-19T04:35:25;13.00;;;11.80;;
35847;SDS011;22332;51.954;20.118;2023-06-19T04:38:30;12.40;;;11.10;;
35847;SDS011;22332;51.954;20.118;2023-06-19T04:41:36;13.50;;;12.20;;
35847;SDS011;22332;51.954;20.118;2023-06-19T04:44:43;13.20;;;12.00;;
35847;SDS011;22332;51.954;20.118;2023-06-19T04:47:49;12.30;;;11.10;;
35847;SDS011;22332;51.954;20.118;2023-06-19T04:50:55;11.80;;;10.60;;
35847;SDS011;22332;51.954;20.118;2023-06-19T04:54:03;12.20;;;11.00;;
35847;SDS011;22332;51.954;20.118;2023-06-19T04:57:09;12.80;;;11.60;;
35847;SDS011;22332;51.954;20.118;2023-06-19T05:00:15;12.00;;;10.90;;
35847;SDS011;22332;51.954;20.118;2023-06-19T05:03:22;13.80;;;12.30;;
35847;SDS011;22332;51.954;20.118;2023-06-19T05:06:28;13.50;;;12.10;;
35847;SDS011;22332;51.954;20.118;2023-06-19T05:09:33;11.30;;;10.20;;
35847;SDS011;22332;51.954;20.118;2023-06-19T05:12:39;11.40;;;10.30;;
35847;SDS011;22332;51.954;20.118;2023-06-19T05:15:44;11.50;;;10.30;;
35847;SDS011;22332;51.954;20.118;2023-06-19T05:18:51;11.70;;;10.60;;
35847;SDS011;22332;51.954;20.118;2023-06-19T05:21:56;12.60;;;11.40;;
35847;SDS011;22332;51.954;20.118;2023-06-19T05:25:02;13.00;;;11.70;;
35847;SDS011;22332;51.954;20.118;2023-06-19T05:28:08;13.90;;;12.50;;
35847;SDS011;22332;51.954;20.118;2023-06-19T05:31:14;12.80;;;11.30;;
35847;SDS011;22332;51.954;20.118;2023-06-19T05:34:21;11.30;;;10.20;;
35847;SDS011;22332;51.954;20.118;2023-06-19T05:37:26;10.80;;;9.70;;
35847;SDS011;22332;51.954;20.118;2023-06-19T05:40:32;11.30;;;10.10;;
35847;SDS011;22332;51.954;20.118;2023-06-19T05:43:37;12.30;;;11.10;;
35847;SDS011;22332;51.954;20.118;2023-06-19T05:46:43;13.00;;;11.70;;
35847;SDS011;22332;51.954;20.118;2023-06-19T05:49:49;12.00;;;10.90;;
35847;SDS011;22332;51.954;20.118;2023-06-19T05:52:54;11.70;;;10.60;;
35847;SDS011;22332;51.954;20.118;2023-06-19T05:56:00;12.20;;;11.10;;
35847;SDS011;22332;51.954;20.118;2023-06-19T05:59:05;10.80;;;9.80;;
35847;SDS011;22332;51.954;20.118;2023-06-19T06:02:11;10.70;;;9.70;;
35847;SDS011;22332;51.954;20.118;2023-06-19T06:05:16;11.50;;;10.40;;
35847;SDS011;22332;51.954;20.118;2023-06-19T06:08:23;11.90;;;10.80;;
35847;SDS011;22332;51.954;20.118;2023-06-19T06:11:29;12.10;;;11.00;;
35847;SDS011;22332;51.954;20.118;2023-06-19T06:14:34;12.20;;;11.00;;
35847;SDS011;22332;51.954;20.118;2023-06-19T06:17:40;12.20;;;11.10;;
35847;SDS011;22332;51.954;20.118;2023-06-19T06:20:45;12.80;;;11.50;;
35847;SDS011;22332;51.954;20.118;2023-06-19T06:23:51;12.90;;;11.60;;
35847;SDS011;22332;51.954;20.118;2023-06-19T06:26:57;13.50;;;12.20;;
35847;SDS011;22332;51.954;20.118;2023-06-19T06:30:03;12.10;;;10.90;;
35847;SDS011;22332;51.954;20.118;2023-06-19T06:33:12;12.00;;;10.80;;
35847;SDS011;22332;51.954;20.118;2023-06-19T06:36:18;12.80;;;11.50;;
35847;SDS011;22332;51.954;20.118;2023-06-19T06:39:23;12.40;;;11.20;;
35847;SDS011;22332;51.954;20.118;2023-06-19T06:42:29;13.80;;;11.10;;
35847;SDS011;22332;51.954;20.118;2023-06-19T06:45:35;12.90;;;11.50;;
35847;SDS011;22332;51.954;20.118;2023-06-19T06:48:41;12.50;;;11.20;;
35847;SDS011;22332;51.954;20.118;2023-06-19T06:51:47;12.90;;;11.70;;
35847;SDS011;22332;51.954;20.118;2023-06-19T06:54:52;13.40;;;12.10;;
35847;SDS011;22332;51.954;20.118;2023-06-19T06:57:58;12.30;;;11.10;;
35847;SDS011;22332;51.954;20.118;2023-06-19T07:01:03;10.50;;;9.50;;
35847;SDS011;22332;51.954;20.118;2023-06-19T07:04:09;11.50;;;10.30;;
35847;SDS011;22332;51.954;20.118;2023-06-19T07:07:15;11.90;;;10.70;;
35847;SDS011;22332;51.954;20.118;2023-06-19T07:10:20;11.90;;;10.80;;
35847;SDS011;22332;51.954;20.118;2023-06-19T07:13:26;11.50;;;10.40;;
35847;SDS011;22332;51.954;20.118;2023-06-19T07:16:32;12.90;;;10.70;;
35847;SDS011;22332;51.954;20.118;2023-06-19T07:19:37;11.90;;;10.70;;
35847;SDS011;22332;51.954;20.118;2023-06-19T07:22:43;11.50;;;10.40;;
35847;SDS011;22332;51.954;20.118;2023-06-19T07:25:50;11.10;;;10.10;;
35847;SDS011;22332;51.954;20.118;2023-06-19T07:28:55;11.30;;;9.30;;
35847;SDS011;22332;51.954;20.118;2023-06-19T07:32:01;10.20;;;9.00;;
35847;SDS011;22332;51.954;20.118;2023-06-19T07:35:08;10.10;;;9.20;;
35847;SDS011;22332;51.954;20.118;2023-06-19T07:38:14;9.60;;;8.60;;
35847;SDS011;22332;51.954;20.118;2023-06-19T07:41:20;9.00;;;8.20;;
35847;SDS011;22332;51.954;20.118;2023-06-19T07:44:25;9.40;;;8.50;;
35847;SDS011;22332;51.954;20.118;2023-06-19T07:47:31;9.60;;;8.70;;
35847;SDS011;22332;51.954;20.118;2023-06-19T07:50:36;10.10;;;9.10;;
35847;SDS011;22332;51.954;20.118;2023-06-19T07:53:42;10.30;;;9.40;;
35847;SDS011;22332;51.954;20.118;2023-06-19T07:56:47;10.60;;;9.50;;
35847;SDS011;22332;51.954;20.118;2023-06-19T07:59:54;9.70;;;8.80;;
35847;SDS011;22332;51.954;20.118;2023-06-19T08:02:59;9.40;;;8.60;;
35847;SDS011;22332;51.954;20.118;2023-06-19T08:06:05;10.10;;;9.20;;
35847;SDS011;22332;51.954;20.118;2023-06-19T08:09:11;10.30;;;9.10;;
35847;SDS011;22332;51.954;20.118;2023-06-19T08:12:16;9.60;;;8.70;;
35847;SDS011;22332;51.954;20.118;2023-06-19T08:15:22;10.00;;;9.00;;
35847;SDS011;22332;51.954;20.118;2023-06-19T08:18:27;10.00;;;8.40;;
35847;SDS011;22332;51.954;20.118;2023-06-19T08:21:33;9.70;;;8.90;;
35847;SDS011;22332;51.954;20.118;2023-06-19T08:24:38;9.00;;;8.20;;
35847;SDS011;22332;51.954;20.118;2023-06-19T08:27:44;9.20;;;8.40;;
35847;SDS011;22332;51.954;20.118;2023-06-19T08:30:50;10.20;;;9.30;;
35847;SDS011;22332;51.954;20.118;2023-06-19T08:33:56;9.40;;;8.60;;
35847;SDS011;22332;51.954;20.118;2023-06-19T08:37:01;9.70;;;8.90;;
35847;SDS011;22332;51.954;20.118;2023-06-19T08:40:09;8.80;;;8.00;;
35847;SDS011;22332;51.954;20.118;2023-06-19T08:43:15;9.20;;;8.40;;
35847;SDS011;22332;51.954;20.118;2023-06-19T08:46:21;9.10;;;8.30;;
35847;SDS011;22332;51.954;20.118;2023-06-19T08:49:30;9.30;;;8.50;;
35847;SDS011;22332;51.954;20.118;2023-06-19T08:52:37;9.50;;;8.60;;
35847;SDS011;22332;51.954;20.118;2023-06-19T08:55:44;9.30;;;8.40;;
35847;SDS011;22332;51.954;20.118;2023-06-19T08:58:49;8.90;;;8.10;;
35847;SDS011;22332;51.954;20.118;2023-06-19T09:01:55;8.60;;;7.80;;
35847;SDS011;22332;51.954;20.118;2023-06-19T09:05:15;9.10;;;8.30;;
35847;SDS011;22332;51.954;20.118;2023-06-19T09:08:22;9.20;;;8.40;;
35847;SDS011;22332;51.954;20.118;2023-06-19T09:11:31;9.30;;;8.40;;
35847;SDS011;22332;51.954;20.118;2023-06-19T09:14:37;8.60;;;7.80;;
35847;SDS011;22332;51.954;20.118;2023-06-19T09:17:44;8.60;;;7.90;;
35847;SDS011;22332;51.954;20.118;2023-06-19T09:20:54;9.30;;;8.40;;
35847;SDS011;22332;51.954;20.118;2023-06-19T09:24:03;9.20;;;8.40;;
35847;SDS011;22332;51.954;20.118;2023-06-19T09:27:12;10.00;;;9.10;;
35847;SDS011;22332;51.954;20.118;2023-06-19T09:30:21;8.70;;;8.00;;
35847;SDS011;22332;51.954;20.118;2023-06-19T09:33:28;8.50;;;7.70;;
35847;SDS011;22332;51.954;20.118;2023-06-19T09:36:35;8.60;;;7.80;;
35847;SDS011;22332;51.954;20.118;2023-06-19T09:39:42;10.30;;;9.30;;
35847;SDS011;22332;51.954;20.118;2023-06-19T09:42:50;11.90;;;10.60;;
35847;SDS011;22332;51.954;20.118;2023-06-19T09:46:05;15.70;;;13.10;;
35847;SDS011;22332;51.954;20.118;2023-06-19T09:49:10;10.80;;;9.80;;
35847;SDS011;22332;51.954;20.118;2023-06-19T09:52:20;10.30;;;8.40;;
35847;SDS011;22332;51.954;20.118;2023-06-19T09:55:27;8.10;;;7.40;;
35847;SDS011;22332;51.954;20.118;2023-06-19T09:58:35;8.30;;;7.60;;
35847;SDS011;22332;51.954;20.118;2023-06-19T10:01:43;8.10;;;7.40;;
35847;SDS011;22332;51.954;20.118;2023-06-19T10:04:50;8.70;;;7.90;;
35847;SDS011;22332;51.954;20.118;2023-06-19T10:07:58;7.60;;;6.90;;
35847;SDS011;22332;51.954;20.118;2023-06-19T10:11:05;6.80;;;6.20;;
35847;SDS011;22332;51.954;20.118;2023-06-19T10:14:10;6.90;;;6.40;;
35847;SDS011;22332;51.954;20.118;2023-06-19T10:17:17;6.90;;;6.30;;
35847;SDS011;22332;51.954;20.118;2023-06-19T10:20:27;6.90;;;6.30;;
35847;SDS011;22332;51.954;20.118;2023-06-19T10:23:36;7.70;;;7.00;;
35847;SDS011;22332;51.954;20.118;2023-06-19T10:26:41;6.70;;;6.10;;
35847;SDS011;22332;51.954;20.118;2023-06-19T10:29:51;7.10;;;6.00;;
35847;SDS011;22332;51.954;20.118;2023-06-19T10:32:57;5.90;;;5.40;;
35847;SDS011;22332;51.954;20.118;2023-06-19T10:36:12;6.90;;;5.90;;
35847;SDS011;22332;51.954;20.118;2023-06-19T10:39:20;6.40;;;5.70;;
35847;SDS011;22332;51.954;20.118;2023-06-19T10:42:26;6.30;;;5.80;;
35847;SDS011;22332;51.954;20.118;2023-06-19T10:45:32;5.90;;;5.30;;
35847;SDS011;22332;51.954;20.118;2023-06-19T10:48:38;5.80;;;5.40;;
35847;SDS011;22332;51.954;20.118;2023-06-19T10:51:44;6.00;;;5.50;;
35847;SDS011;22332;51.954;20.118;2023-06-19T10:54:54;6.00;;;5.40;;
35847;SDS011;22332;51.954;20.118;2023-06-19T10:58:00;6.00;;;5.20;;
35847;SDS011;22332;51.954;20.118;2023-06-19T11:01:06;5.20;;;4.80;;
35847;SDS011;22332;51.954;20.118;2023-06-19T11:04:11;5.20;;;4.70;;
35847;SDS011;22332;51.954;20.118;2023-06-19T11:07:18;5.80;;;5.30;;
35847;SDS011;22332;51.954;20.118;2023-06-19T11:10:24;5.50;;;5.00;;
35847;SDS011;22332;51.954;20.118;2023-06-19T11:13:31;5.40;;;4.80;;
35847;SDS011;22332;51.954;20.118;2023-06-19T11:16:39;5.40;;;5.00;;
35847;SDS011;22332;51.954;20.118;2023-06-19T11:19:45;5.20;;;4.80;;
35847;SDS011;22332;51.954;20.118;2023-06-19T11:22:54;5.40;;;5.00;;
35847;SDS011;22332;51.954;20.118;2023-06-19T11:26:03;4.90;;;4.40;;
35847;SDS011;22332;51.954;20.118;2023-06-19T11:29:16;5.30;;;4.80;;
35847;SDS011;22332;51.954;20.118;2023-06-19T11:32:23;5.80;;;5.20;;
35847;SDS011;22332;51.954;20.118;2023-06-19T11:35:34;5.50;;;5.00;;
35847;SDS011;22332;51.954;20.118;2023-06-19T11:38:42;5.30;;;4.90;;
35847;SDS011;22332;51.954;20.118;2023-06-19T11:41:50;6.00;;;5.50;;
35847;SDS011;22332;51.954;20.118;2023-06-19T11:44:56;6.00;;;5.40;;
35847;SDS011;22332;51.954;20.118;2023-06-19T11:48:06;6.00;;;5.50;;
35847;SDS011;22332;51.954;20.118;2023-06-19T11:51:11;7.00;;;6.20;;
35847;SDS011;22332;51.954;20.118;2023-06-19T11:54:20;5.80;;;5.30;;
35847;SDS011;22332;51.954;20.118;2023-06-19T11:57:25;6.20;;;5.60;;
35847;SDS011;22332;51.954;20.118;2023-06-19T12:00:31;5.80;;;5.10;;
35847;SDS011;22332;51.954;20.118;2023-06-19T12:03:37;6.00;;;5.50;;
35847;SDS011;22332;51.954;20.118;2023-06-19T12:06:43;5.80;;;5.30;;
35847;SDS011;22332;51.954;20.118;2023-06-19T12:09:49;6.20;;;5.70;;
35847;SDS011;22332;51.954;20.118;2023-06-19T12:12:54;5.40;;;4.90;;
35847;SDS011;22332;51.954;20.118;2023-06-19T12:16:00;6.40;;;5.30;;
35847;SDS011;22332;51.954;20.118;2023-06-19T12:19:06;5.50;;;5.10;;
35847;SDS011;22332;51.954;20.118;2023-06-19T12:22:12;5.70;;;5.20;;
35847;SDS011;22332;51.954;20.118;2023-06-19T12:25:17;6.10;;;5.50;;
35847;SDS011;22332;51.954;20.118;2023-06-19T12:28:23;6.00;;;5.50;;
35847;SDS011;22332;51.954;20.118;2023-06-19T12:31:29;7.20;;;6.40;;
35847;SDS011;22332;51.954;20.118;2023-06-19T12:34:34;6.10;;;5.20;;
35847;SDS011;22332;51.954;20.118;2023-06-19T12:37:40;5.80;;;5.30;;
35847;SDS011;22332;51.954;20.118;2023-06-19T12:40:45;5.80;;;5.00;;
35847;SDS011;22332;51.954;20.118;2023-06-19T12:43:51;5.10;;;4.70;;
35847;SDS011;22332;51.954;20.118;2023-06-19T12:46:56;5.40;;;4.90;;
35847;SDS011;22332;51.954;20.118;2023-06-19T12:50:03;5.50;;;5.00;;
35847;SDS011;22332;51.954;20.118;2023-06-19T12:53:10;5.50;;;5.00;;
35847;SDS011;22332;51.954;20.118;2023-06-19T12:56:16;5.70;;;5.20;;
35847;SDS011;22332;51.954;20.118;2023-06-19T12:59:21;5.80;;;5.30;;
35847;SDS011;22332;51.954;20.118;2023-06-19T13:02:27;6.10;;;5.20;;
35847;SDS011;22332;51.954;20.118;2023-06-19T13:05:33;5.70;;;5.20;;
35847;SDS011;22332;51.954;20.118;2023-06-19T13:08:39;5.00;;;4.60;;
35847;SDS011;22332;51.954;20.118;2023-06-19T13:11:45;5.20;;;4.80;;
35847;SDS011;22332;51.954;20.118;2023-06-19T13:14:52;5.40;;;5.00;;
35847;SDS011;22332;51.954;20.118;2023-06-19T13:17:58;5.60;;;5.00;;
35847;SDS011;22332;51.954;20.118;2023-06-19T13:21:03;5.50;;;4.70;;
35847;SDS011;22332;51.954;20.118;2023-06-19T13:24:09;5.70;;;5.10;;
35847;SDS011;22332;51.954;20.118;2023-06-19T13:27:15;5.70;;;5.20;;
35847;SDS011;22332;51.954;20.118;2023-06-19T13:30:20;5.80;;;5.30;;
35847;SDS011;22332;51.954;20.118;2023-06-19T13:33:26;5.20;;;4.80;;
35847;SDS011;22332;51.954;20.118;2023-06-19T13:36:31;5.20;;;4.70;;
35847;SDS011;22332;51.954;20.118;2023-06-19T13:39:37;5.60;;;5.00;;
35847;SDS011;22332;51.954;20.118;2023-06-19T13:42:43;7.00;;;5.60;;
35847;SDS011;22332;51.954;20.118;2023-06-19T13:45:48;5.10;;;4.60;;
35847;SDS011;22332;51.954;20.118;2023-06-19T13:48:54;5.50;;;4.50;;
35847;SDS011;22332;51.954;20.118;2023-06-19T13:51:59;4.60;;;4.20;;
35847;SDS011;22332;51.954;20.118;2023-06-19T13:55:05;5.00;;;4.60;;
35847;SDS011;22332;51.954;20.118;2023-06-19T13:58:12;5.00;;;4.50;;
35847;SDS011;22332;51.954;20.118;2023-06-19T14:01:17;5.00;;;4.60;;
35847;SDS011;22332;51.954;20.118;2023-06-19T14:04:23;5.30;;;4.50;;
35847;SDS011;22332;51.954;20.118;2023-06-19T14:07:28;5.10;;;4.40;;
35847;SDS011;22332;51.954;20.118;2023-06-19T14:10:34;4.80;;;4.40;;
35847;SDS011;22332;51.954;20.118;2023-06-19T14:13:40;4.90;;;4.10;;
35847;SDS011;22332;51.954;20.118;2023-06-19T14:16:45;5.40;;;4.00;;
35847;SDS011;22332;51.954;20.118;2023-06-19T14:19:51;4.60;;;4.10;;
35847;SDS011;22332;51.954;20.118;2023-06-19T14:22:58;5.40;;;5.00;;
35847;SDS011;22332;51.954;20.118;2023-06-19T14:26:04;5.00;;;4.60;;
35847;SDS011;22332;51.954;20.118;2023-06-19T14:29:09;4.60;;;4.20;;
35847;SDS011;22332;51.954;20.118;2023-06-19T14:32:18;7.40;;;6.70;;
35847;SDS011;22332;51.954;20.118;2023-06-19T14:35:24;5.00;;;4.50;;
35847;SDS011;22332;51.954;20.118;2023-06-19T14:38:29;6.30;;;5.70;;
35847;SDS011;22332;51.954;20.118;2023-06-19T14:41:36;5.20;;;4.70;;
35847;SDS011;22332;51.954;20.118;2023-06-19T14:44:41;4.80;;;4.20;;
35847;SDS011;22332;51.954;20.118;2023-06-19T14:47:47;4.80;;;4.40;;
35847;SDS011;22332;51.954;20.118;2023-06-19T14:50:52;5.00;;;4.50;;
35847;SDS011;22332;51.954;20.118;2023-06-19T14:53:58;5.80;;;5.30;;
35847;SDS011;22332;51.954;20.118;2023-06-19T14:57:06;4.50;;;4.10;;
35847;SDS011;22332;51.954;20.118;2023-06-19T15:00:13;4.10;;;3.80;;
35847;SDS011;22332;51.954;20.118;2023-06-19T15:03:19;6.30;;;3.70;;
35847;SDS011;22332;51.954;20.118;2023-06-19T15:06:24;4.20;;;3.90;;
35847;SDS011;22332;51.954;20.118;2023-06-19T15:09:30;6.00;;;4.20;;
35847;SDS011;22332;51.954;20.118;2023-06-19T15:12:36;4.10;;;3.80;;
35847;SDS011;22332;51.954;20.118;2023-06-19T15:15:42;3.80;;;3.50;;
35847;SDS011;22332;51.954;20.118;2023-06-19T15:18:49;4.20;;;3.80;;
35847;SDS011;22332;51.954;20.118;2023-06-19T15:22:02;3.70;;;3.40;;
35847;SDS011;22332;51.954;20.118;2023-06-19T15:25:08;4.20;;;3.80;;
35847;SDS011;22332;51.954;20.118;2023-06-19T15:28:14;4.00;;;3.70;;
35847;SDS011;22332;51.954;20.118;2023-06-19T15:31:22;3.90;;;3.60;;
35847;SDS011;22332;51.954;20.118;2023-06-19T15:34:31;3.90;;;3.60;;
35847;SDS011;22332;51.954;20.118;2023-06-19T15:37:41;3.90;;;3.60;;
35847;SDS011;22332;51.954;20.118;2023-06-19T15:40:46;3.90;;;3.60;;
35847;SDS011;22332;51.954;20.118;2023-06-19T15:43:59;4.30;;;3.90;;
35847;SDS011;22332;51.954;20.118;2023-06-19T15:47:05;4.60;;;3.70;;
35847;SDS011;22332;51.954;20.118;2023-06-19T15:50:11;4.00;;;3.70;;
35847;SDS011;22332;51.954;20.118;2023-06-19T15:53:17;4.70;;;4.20;;
35847;SDS011;22332;51.954;20.118;2023-06-19T15:56:22;4.30;;;4.00;;
35847;SDS011;22332;51.954;20.118;2023-06-19T15:59:28;4.40;;;4.10;;
35847;SDS011;22332;51.954;20.118;2023-06-19T16:02:33;4.00;;;3.70;;
35847;SDS011;22332;51.954;20.118;2023-06-19T16:05:39;4.00;;;3.70;;
35847;SDS011;22332;51.954;20.118;2023-06-19T16:08:45;5.70;;;3.80;;
35847;SDS011;22332;51.954;20.118;2023-06-19T16:11:53;4.40;;;4.00;;
35847;SDS011;22332;51.954;20.118;2023-06-19T16:14:59;5.00;;;4.00;;
35847;SDS011;22332;51.954;20.118;2023-06-19T16:18:04;4.40;;;4.00;;
35847;SDS011;22332;51.954;20.118;2023-06-19T16:21:11;4.40;;;4.00;;
35847;SDS011;22332;51.954;20.118;2023-06-19T16:24:18;4.20;;;3.80;;
35847;SDS011;22332;51.954;20.118;2023-06-19T16:27:24;4.40;;;4.00;;
35847;SDS011;22332;51.954;20.118;2023-06-19T16:30:29;4.20;;;3.90;;
35847;SDS011;22332;51.954;20.118;2023-06-19T16:33:35;4.70;;;4.30;;
35847;SDS011;22332;51.954;20.118;2023-06-19T16:36:41;4.40;;;4.00;;
35847;SDS011;22332;51.954;20.118;2023-06-19T16:39:46;4.00;;;3.70;;
35847;SDS011;22332;51.954;20.118;2023-06-19T16:42:52;4.50;;;4.10;;
35847;SDS011;22332;51.954;20.118;2023-06-19T16:45:58;4.30;;;3.90;;
35847;SDS011;22332;51.954;20.118;2023-06-19T16:49:04;4.50;;;4.10;;
35847;SDS011;22332;51.954;20.118;2023-06-19T16:52:09;4.60;;;4.20;;
35847;SDS011;22332;51.954;20.118;2023-06-19T16:55:15;4.40;;;4.00;;
35847;SDS011;22332;51.954;20.118;2023-06-19T16:58:24;4.40;;;3.80;;
35847;SDS011;22332;51.954;20.118;2023-06-19T17:01:30;4.40;;;4.00;;
35847;SDS011;22332;51.954;20.118;2023-06-19T17:04:36;5.10;;;3.80;;
35847;SDS011;22332;51.954;20.118;2023-06-19T17:07:41;4.30;;;4.00;;
35847;SDS011;22332;51.954;20.118;2023-06-19T17:10:48;4.40;;;4.00;;
35847;SDS011;22332;51.954;20.118;2023-06-19T17:13:55;5.80;;;3.90;;
35847;SDS011;22332;51.954;20.118;2023-06-19T17:17:00;5.00;;;4.50;;
35847;SDS011;22332;51.954;20.118;2023-06-19T17:20:07;4.70;;;4.30;;
35847;SDS011;22332;51.954;20.118;2023-06-19T17:23:15;4.60;;;4.20;;
35847;SDS011;22332;51.954;20.118;2023-06-19T17:26:20;5.30;;;4.80;;
35847;SDS011;22332;51.954;20.118;2023-06-19T17:29:26;5.00;;;4.40;;
35847;SDS011;22332;51.954;20.118;2023-06-19T17:32:33;5.40;;;4.30;;
35847;SDS011;22332;51.954;20.118;2023-06-19T17:35:39;5.20;;;4.70;;
35847;SDS011;22332;51.954;20.118;2023-06-19T17:38:51;5.90;;;4.70;;
35847;SDS011;22332;51.954;20.118;2023-06-19T17:41:57;6.60;;;5.00;;
35847;SDS011;22332;51.954;20.118;2023-06-19T17:45:03;5.80;;;5.20;;
35847;SDS011;22332;51.954;20.118;2023-06-19T17:48:10;6.00;;;5.20;;
35847;SDS011;22332;51.954;20.118;2023-06-19T17:51:15;5.40;;;4.90;;
35847;SDS011;22332;51.954;20.118;2023-06-19T17:54:21;5.80;;;5.10;;
35847;SDS011;22332;51.954;20.118;2023-06-19T17:57:27;5.90;;;5.40;;
35847;SDS011;22332;51.954;20.118;2023-06-19T18:00:33;6.30;;;5.60;;
35847;SDS011;22332;51.954;20.118;2023-06-19T18:03:38;7.20;;;5.90;;
35847;SDS011;22332;51.954;20.118;2023-06-19T18:06:44;5.70;;;5.20;;
35847;SDS011;22332;51.954;20.118;2023-06-19T18:09:49;6.10;;;5.50;;
35847;SDS011;22332;51.954;20.118;2023-06-19T18:12:58;6.10;;;5.40;;
35847;SDS011;22332;51.954;20.118;2023-06-19T18:16:04;5.90;;;5.40;;
35847;SDS011;22332;51.954;20.118;2023-06-19T18:19:10;5.60;;;5.10;;